Point Roberts Airpark

METAR CYVR TAF CYVR
8 °C
°C
-
°C
23m
Wiek
23:23:03
LT
22:23
UTC
0 ft

4.000

8.000

12.000

16.000

20.000

FEW 2.000
SCT 3.300
BKN 6.300
BKN 15.000
VFR
<?= Yii::t('app', 'Wind direction') ?> <?= Yii::t('app', 'of'); ?>
140°
17:17
Zachód słońca
100%
Wilgotność
Siła wiatru
Zamknięte/Śnieg
Zasięg wzroku na RWY
Stan RWY
Widzialność pionowa
Min. widoczność
CAVOK
Trend
Korekta
Raport specjalny
30,28 inHg
QNH
METAR CYVR 062200Z 14013G19KT 20SM FEW020 SCT033 BKN063 BKN150 08/08 A3028 RMK SC1SC3SC1AC2 SLP255
Popękane chmury
4 kt
4 kt
14:00
IFR
12 kt
15:00
IFR
15 kt
16:00
IFR
15 kt
17:00
IFR
15 kt
18:00
IFR
15 kt
19:00
IFR
15 kt
20:00
IFR
15 kt
20 mi
Widoczność
6.300 ft
Sufit
13-19 kt
Wiatr
metar-taf.com/1RL

Metar-Taf.com

Dekoder wizualny

My i strony trzecie śledzimy Twoje zachowanie internetowe na naszej stronie za pomocą plików cookie. Jeśli kontynuujesz, zakładamy, że zgadzasz się z naszymi polityka plików cookie.